Topeka, KS (66611)

01:57 PM CDT die 25o October, anno 2014 (GMT -0500)
Berkshire Golf Course | Change Station
CLOSE
Current Station
Personal Weather Stations
Location: Topeka, KS
Elevation: 1020 ft
Nearby Weather Stations

Elev 1020 ft 39.00 °N, 95.73 °W | Updated 9 minutes ago

Serena
Serena
80.4 °F
Feels Like 82 °F
N
3.7
Ventus Variabilis Ventus from Eurus

Hodie
High -- | Low -- °F
--% Chance of Precip.
Yesterday
High -- | Low -- °F
Precip. -- in
7:42 AM 6:30 PM
Waxing Crescent, 4% visible
Pressio 30.04 in
Visibilitas 10.0 milia passuum
Clouds Serena
Index Caloris 82 °F
Frigus in quo Ros apparet 64 °F
Umor 57%
Rainfall 0.00 in
Snow Depth Not available.
UV 5 out of 12
Pollen 2.90 out of 12
Air Quality Not available.
Flu Activity No Activity
METAR KFOE 251753Z 10006KT 10SM CLR 25/17 A3006 RMK AO2 SLP171 T02500167 10250 20100 58008

More Conditions Fewer Conditions

Pressio 30.04 in
Visibilitas 10.0 milia passuum
Clouds Serena
Index Caloris 82 °F
Frigus in quo Ros apparet 64 °F
Umor 57%
Rainfall 0.00 in
Snow Depth Not available.
UV 5 out of 12
Pollen 2.90 out of 12
Air Quality Not available.
Flu Activity No Activity
METAR KFOE 251753Z 10006KT 10SM CLR 25/17 A3006 RMK AO2 SLP171 T02500167 10250 20100 58008

More Conditions Fewer Conditions

10-Day Weather Forecast

Almanac

Astronomy

Oct. 25, 2014 Rise Set
Actual Time 7:42 AM CDT 6:30 PM CDT
Civil Twilight 7:15 AM CDT 6:57 PM CDT
Nautical Twilight 6:44 AM CDT 7:28 PM CDT
Astronomical Twilight 6:13 AM CDT 7:59 PM CDT
Moon 9:21 AM CDT 7:55 PM CDT
Length Of Visible Light 11h 42m
Length of Day
10h 47m
Tomorrow will be 2m 21s shorter.
Waxing Crescent, 4% of the Moon is Illuminated
Hodie
Waxing Crescent
Oct 30
First Quarter
Nov 6
Full
Nov 14
Last Quarter
Nov 22
New

Today's Extremes

State Highs State Lows

Community

WunderPhotos

Upload Photos

1,764,954 photos uploaded!

Nearby

Snow Depth

Station Depth Elevation
No new snow has been reported.

Earthquake Activity

City Distance Mag. Time & Date
No recent earthquake activity has been reported nearby.
Minimum magnitude displayed is 2.5.

Coastal Water Temperatures

Locus Calor
No Stations Reporting

Nearby Weather Stations